Jessore, Bangladesh

3:50 PM BDT on August 29, 2015 (GMT +0600)
Netaji Subhash Chandra Bose International | | Change Station
CLOSE
Current Station
Airport
Location: Kolkata,
Elevation: 20 ft
Nearby Weather Stations

Elev 20 ft 22.65 °N, 88.44 °E | Updated 45 seconds ago

Haze
Haze
84 °F
Feels Like 98 °F
N
9
Wind Variable Wind from South

Today
High -- | Low -- °F
--% Chance of Precip.
Yesterday
High -- | Low -- °F
Precip. -- in
5:44 AM 6:24 PM
Full, 100% visible
Pressure 29.53 in
Visibility 1.7 miles
Clouds Scattered Clouds 1800 ft
Few 3000 ft
Mostly Cloudy 9000 ft
Heat Index 98 °F
Dew Point 81 °F
Humidity 89%
Rainfall 0.00 in
Snow Depth Not available.
UV 3 out of 12
Pollen Not available.
Air Quality Not available.
Flu Activity Not available.
METAR VECC 290950Z 17008KT 2800 HZ SCT018 FEW030CB BKN090 29/27 Q1000 TEMPO TL1150 1500 TSRA
Pressure 29.53 in
Visibility 1.7 miles
Clouds Scattered Clouds 1800 ft
Few 3000 ft
Mostly Cloudy 9000 ft
Heat Index 98 °F
Dew Point 81 °F
Humidity 89%
Rainfall 0.00 in
Snow Depth Not available.
UV 3 out of 12
Pollen Not available.
Air Quality Not available.
Flu Activity Not available.
METAR VECC 290950Z 17008KT 2800 HZ SCT018 FEW030CB BKN090 29/27 Q1000 TEMPO TL1150 1500 TSRA

10-Day Weather Forecast

×

Almanac

Astronomy

Aug. 29, 2015 Rise Set
Actual Time
Civil Twilight
Nautical Twilight
Astronomical Twilight
Moon
Length of Visible Light
Length of Day
Tomorrow will be .
, % of the Moon is Illuminated

Today's Extremes

Country Highs Country Lows

Community

WunderPhotos

Upload Photos

1,850,634 photos uploaded!

WunderBlogs® & News

Nearby

Air Quality

  Air Quality AQ Index Pollutant
Not available.

Snow Depth

Station Depth Elevation

Earthquake Activity

City Distance Mag. Time & Date
Minimum magnitude displayed is 2.5.

Coastal Water Temperatures

Place Temperature

Stations

Nearby Weather Stations

Station Location Temp. Windchill Dew Point Humidity Wind Precip. Elev Updated Type